Time;durP1;ratioP1;P1;durP2;ratioP2;P2;SDS_P1;SDS_P2;PMS_P1;PMS_P2;Temp;Humidity;BMP_temperature;BMP_pressure;BME280_temperature;BME280_humidity;BME280_pressure;Samples;Min_cycle;Max_cycle;Signal;HPM_P1;HPM_P2
2022/01/11 00:01:45;;;;;;;75.17;67.30;;;2.20;99.90;;;;;;4968230;28;20180;-81
2022/01/11 00:04:12;;;;;;;79.30;70.23;;;2.20;99.90;;;;;;5000652;28;20192;-80
2022/01/11 00:06:49;;;;;;;75.10;67.03;;;2.20;99.90;;;;;;5002158;28;20283;-81
2022/01/11 00:09:30;;;;;;;76.03;68.07;;;2.20;99.90;;;;;;5003905;28;20184;-80
2022/01/11 00:11:56;;;;;;;76.27;68.60;;;2.20;99.90;;;;;;5003608;28;20211;-81
2022/01/11 00:14:22;;;;;;;77.20;68.73;;;2.20;99.90;;;;;;5004600;28;20198;-80
2022/01/11 00:16:48;;;;;;;79.63;71.57;;;2.20;99.90;;;;;;5002834;28;20234;-80
2022/01/11 00:19:14;;;;;;;76.37;67.93;;;2.20;99.90;;;;;;5002908;28;20283;-80
2022/01/11 00:21:46;;;;;;;80.17;72.10;;;2.30;99.90;;;;;;4998333;28;20195;-80
2022/01/11 00:24:29;;;;;;;75.63;67.60;;;2.20;99.90;;;;;;4990303;28;20192;-81
2022/01/11 00:27:04;;;;;;;78.57;70.37;;;2.20;99.90;;;;;;5005575;28;20234;-80
2022/01/11 00:29:31;;;;;;;77.20;69.67;;;2.20;99.90;;;;;;5001776;28;20213;-80
2022/01/11 00:32:03;;;;;;;77.40;69.57;;;2.20;99.90;;;;;;5002292;28;21078;-79
2022/01/11 00:34:39;;;;;;;80.53;72.33;;;2.30;99.90;;;;;;5002271;28;20243;-80
2022/01/11 00:37:05;;;;;;;70.70;63.87;;;2.30;99.90;;;;;;5005106;28;20633;-81
2022/01/11 00:39:31;;;;;;;75.50;67.97;;;2.30;99.90;;;;;;5004569;28;20191;-81
2022/01/11 00:41:58;;;;;;;74.87;67.53;;;2.30;99.90;;;;;;4989480;28;20269;-80
2022/01/11 00:44:24;;;;;;;77.33;69.83;;;2.30;99.90;;;;;;5002062;28;20277;-80
2022/01/11 00:46:50;;;;;;;75.00;67.37;;;2.20;99.90;;;;;;4986311;28;20289;-80
2022/01/11 00:49:16;;;;;;;76.47;69.00;;;2.20;99.90;;;;;;5001123;28;20242;-80
2022/01/11 00:51:42;;;;;;;76.97;69.47;;;2.20;99.90;;;;;;4980846;28;20243;-78
2022/01/11 00:54:09;;;;;;;76.40;68.33;;;2.20;99.90;;;;;;4999667;28;20745;-80
2022/01/11 00:56:34;;;;;;;77.37;69.60;;;2.10;99.90;;;;;;5001106;28;20211;-79
2022/01/11 00:59:00;;;;;;;77.03;68.83;;;2.10;99.90;;;;;;4998879;28;20184;-80
2022/01/11 01:01:27;;;;;;;75.57;67.53;;;2.00;99.90;;;;;;5001755;28;20302;-79
2022/01/11 01:03:53;;;;;;;74.73;67.20;;;2.00;99.90;;;;;;4984257;28;20203;-79
2022/01/11 01:06:19;;;;;;;77.77;69.27;;;2.00;99.90;;;;;;4999710;28;20192;-79
2022/01/11 01:08:45;;;;;;;77.10;68.90;;;2.10;99.90;;;;;;4997701;28;20931;-80
2022/01/11 01:11:11;;;;;;;73.77;65.23;;;2.10;99.90;;;;;;4991732;28;20606;-80
2022/01/11 01:13:37;;;;;;;79.33;69.70;;;2.10;99.90;;;;;;5001535;28;20243;-79
2022/01/11 01:16:03;;;;;;;79.80;71.10;;;2.10;99.90;;;;;;5002988;28;20367;-79
2022/01/11 01:18:32;;;;;;;77.43;68.93;;;2.10;99.90;;;;;;5000711;28;20194;-80
2022/01/11 01:20:59;;;;;;;91.43;71.53;;;2.00;99.90;;;;;;5000663;28;20207;-80
2022/01/11 01:23:25;;;;;;;88.63;71.67;;;2.00;99.90;;;;;;5001733;28;20210;-79
2022/01/11 01:25:51;;;;;;;82.73;72.73;;;2.00;99.90;;;;;;5001669;28;20195;-80
2022/01/11 01:28:17;;;;;;;91.50;74.30;;;2.00;99.90;;;;;;5002095;28;20215;-81
2022/01/11 01:30:44;;;;;;;89.53;73.63;;;2.00;99.90;;;;;;4989599;28;21007;-80
2022/01/11 01:33:10;;;;;;;87.07;73.33;;;2.00;99.90;;;;;;4998954;28;20972;-80
2022/01/11 01:35:39;;;;;;;88.73;73.33;;;2.10;99.90;;;;;;4998955;28;20190;-80
2022/01/11 01:38:07;;;;;;;93.47;75.13;;;2.10;99.90;;;;;;4983965;28;20255;-80
2022/01/11 01:40:40;;;;;;;94.20;77.70;;;2.00;99.90;;;;;;4982978;28;20576;-80
2022/01/11 01:43:08;;;;;;;87.27;72.77;;;2.10;99.90;;;;;;5000689;28;20666;-79
2022/01/11 01:45:35;;;;;;;94.87;77.17;;;2.10;99.90;;;;;;5000554;28;20184;-80
2022/01/11 01:48:02;;;;;;;90.53;75.40;;;2.10;99.90;;;;;;4998750;28;20226;-80
2022/01/11 01:50:28;;;;;;;91.43;75.90;;;2.10;99.90;;;;;;4999516;28;20188;-80
2022/01/11 01:52:57;;;;;;;92.50;73.40;;;2.10;99.90;;;;;;4999357;28;20288;-80
2022/01/11 01:55:24;;;;;;;89.87;74.80;;;2.20;99.90;;;;;;4998240;28;20305;-79
2022/01/11 01:57:51;;;;;;;90.13;75.27;;;2.20;99.90;;;;;;4984848;28;20208;-80
2022/01/11 02:00:19;;;;;;;87.73;74.60;;;2.20;99.90;;;;;;4985209;28;20234;-80
2022/01/11 02:02:44;;;;;;;83.33;72.57;;;2.30;99.90;;;;;;5003749;28;20183;-79
2022/01/11 02:05:11;;;;;;;85.67;72.70;;;2.30;99.90;;;;;;4990436;28;20258;-79
2022/01/11 02:07:36;;;;;;;86.07;73.67;;;2.30;99.90;;;;;;4999899;28;20196;-80
2022/01/11 02:10:05;;;;;;;92.17;73.27;;;2.40;99.90;;;;;;4999617;28;20199;-80
2022/01/11 02:12:31;;;;;;;84.63;71.97;;;2.40;99.90;;;;;;5001489;28;20297;-81
2022/01/11 02:14:57;;;;;;;87.40;71.53;;;2.40;99.90;;;;;;5003317;28;20640;-80
2022/01/11 02:17:26;;;;;;;87.13;73.80;;;2.40;99.90;;;;;;5000635;28;20694;-79
2022/01/11 02:19:56;;;;;;;91.77;75.27;;;2.40;99.90;;;;;;5001350;28;20192;-80
2022/01/11 02:22:24;;;;;;;88.67;75.53;;;2.40;99.90;;;;;;5002546;28;20286;-79
2022/01/11 02:24:50;;;;;;;87.67;73.47;;;2.40;99.90;;;;;;5004719;28;20188;-80
2022/01/11 02:27:15;;;;;;;85.60;71.97;;;2.40;99.90;;;;;;4986095;28;20565;-79
2022/01/11 02:29:43;;;;;;;85.97;73.40;;;2.40;99.90;;;;;;5001977;28;20211;-81
2022/01/11 02:32:09;;;;;;;83.77;73.93;;;2.40;99.90;;;;;;5004086;28;20188;-79
2022/01/11 02:34:35;;;;;;;83.47;72.93;;;2.40;99.90;;;;;;5004961;28;20219;-79
2022/01/11 02:37:02;;;;;;;94.23;73.03;;;2.40;99.90;;;;;;4983912;28;20247;-81
2022/01/11 02:39:28;;;;;;;84.87;73.43;;;2.40;99.90;;;;;;5003092;28;20707;-80
2022/01/11 02:41:56;;;;;;;87.97;73.40;;;2.40;99.90;;;;;;5001480;28;20200;-79
2022/01/11 02:44:22;;;;;;;87.30;74.30;;;2.40;99.90;;;;;;5002121;28;20188;-80
2022/01/11 02:46:49;;;;;;;92.00;74.93;;;2.40;99.90;;;;;;5002617;28;20198;-81
2022/01/11 02:49:16;;;;;;;88.43;74.37;;;2.40;99.90;;;;;;5005514;28;20199;-81
2022/01/11 02:51:42;;;;;;;94.73;76.00;;;2.30;99.90;;;;;;5003050;28;20203;-80
2022/01/11 02:54:08;;;;;;;89.33;75.13;;;2.40;99.90;;;;;;5003270;28;20197;-79
2022/01/11 02:56:34;;;;;;;89.00;75.03;;;2.30;99.90;;;;;;4976250;28;20226;-79
2022/01/11 02:59:01;;;;;;;88.07;75.30;;;2.30;99.90;;;;;;5003305;28;20188;-79
2022/01/11 03:01:27;;;;;;;86.93;73.93;;;2.20;99.90;;;;;;5002823;28;20187;-81
2022/01/11 03:03:54;;;;;;;85.77;73.17;;;2.20;99.90;;;;;;4998537;28;20685;-81
2022/01/11 03:06:19;;;;;;;92.57;75.50;;;2.20;99.90;;;;;;4984591;28;20200;-80
2022/01/11 03:08:46;;;;;;;85.27;73.27;;;2.20;99.90;;;;;;5000634;28;20717;-79
2022/01/11 03:11:14;;;;;;;86.17;71.47;;;2.20;99.90;;;;;;5000739;28;20219;-80
2022/01/11 03:13:43;;;;;;;95.30;74.37;;;2.20;99.90;;;;;;5001485;28;20661;-80
2022/01/11 03:16:10;;;;;;;88.30;72.97;;;2.30;99.90;;;;;;5002514;28;20231;-79
2022/01/11 03:18:35;;;;;;;86.67;71.47;;;2.30;99.90;;;;;;4970444;28;20199;-78
2022/01/11 03:21:02;;;;;;;90.73;75.10;;;2.30;99.90;;;;;;4986574;28;20184;-79
2022/01/11 03:23:27;;;;;;;96.43;75.20;;;2.30;99.90;;;;;;5003615;28;20188;-79
2022/01/11 03:25:53;;;;;;;95.37;74.50;;;2.30;99.90;;;;;;5005307;28;20193;-79
2022/01/11 03:28:21;;;;;;;87.17;74.13;;;2.20;99.90;;;;;;4988160;28;20215;-79
2022/01/11 03:30:48;;;;;;;94.63;77.47;;;2.20;99.90;;;;;;5004682;28;20727;-78
2022/01/11 03:33:14;;;;;;;90.50;72.90;;;2.20;99.90;;;;;;5003275;28;20547;-79
2022/01/11 03:35:41;;;;;;;94.27;74.07;;;2.20;99.90;;;;;;4988817;28;20608;-80
2022/01/11 03:38:08;;;;;;;86.80;73.17;;;2.20;99.90;;;;;;5003955;28;20232;-80
2022/01/11 03:40:35;;;;;;;86.43;75.27;;;2.20;99.90;;;;;;5003585;28;20703;-78
2022/01/11 03:43:01;;;;;;;83.33;71.70;;;2.30;99.90;;;;;;5002334;28;20208;-80
2022/01/11 03:45:27;;;;;;;80.47;68.70;;;2.30;99.90;;;;;;5001925;28;20625;-79
2022/01/11 03:47:55;;;;;;;85.07;74.37;;;2.30;99.90;;;;;;5004482;28;20287;-78
2022/01/11 03:50:22;;;;;;;82.00;73.33;;;2.30;99.90;;;;;;5004130;28;20220;-79
2022/01/11 03:52:57;;;;;;;81.97;73.00;;;2.30;99.90;;;;;;5002431;28;20193;-79
2022/01/11 03:55:32;;;;;;;82.37;73.43;;;2.30;99.90;;;;;;5000244;28;20657;-80
2022/01/11 03:57:58;;;;;;;81.73;71.80;;;2.30;99.90;;;;;;5003799;28;20704;-79
2022/01/11 04:00:24;;;;;;;80.00;71.20;;;2.30;99.90;;;;;;4985592;28;20215;-80
2022/01/11 04:02:49;;;;;;;80.03;71.13;;;2.30;99.90;;;;;;5001564;28;20706;-80
2022/01/11 04:05:16;;;;;;;83.00;73.67;;;2.30;99.90;;;;;;5002265;28;20202;-80
2022/01/11 04:07:41;;;;;;;81.93;72.80;;;2.30;99.90;;;;;;5001317;28;20600;-79
2022/01/11 04:10:08;;;;;;;82.90;72.30;;;2.30;99.90;;;;;;4999185;28;20193;-80
2022/01/11 04:12:35;;;;;;;84.80;75.60;;;2.30;99.90;;;;;;5000116;28;20216;-80
2022/01/11 04:15:01;;;;;;;83.03;74.33;;;2.30;99.90;;;;;;4999142;28;20207;-80
2022/01/11 04:17:26;;;;;;;84.70;75.57;;;2.20;99.90;;;;;;5004045;28;20231;-78
2022/01/11 04:19:52;;;;;;;83.47;74.60;;;2.20;99.90;;;;;;4998552;28;20203;-79
2022/01/11 04:22:19;;;;;;;83.63;74.67;;;2.30;99.90;;;;;;4984692;28;20278;-79
2022/01/11 04:24:45;;;;;;;86.20;76.13;;;2.20;99.90;;;;;;4999931;28;20188;-78
2022/01/11 04:27:11;;;;;;;85.47;76.23;;;2.20;99.90;;;;;;5000281;28;20211;-80
2022/01/11 04:29:36;;;;;;;84.70;76.07;;;2.20;99.90;;;;;;4985203;28;20693;-80
2022/01/11 04:32:03;;;;;;;83.77;74.87;;;2.30;99.90;;;;;;4989752;28;20638;-79
2022/01/11 04:34:29;;;;;;;85.30;76.37;;;2.30;99.90;;;;;;4999427;28;20612;-79
2022/01/11 04:36:55;;;;;;;78.10;70.30;;;2.30;99.90;;;;;;4997650;28;20218;-80
2022/01/11 04:39:22;;;;;;;82.87;74.47;;;2.30;99.90;;;;;;5000636;28;20239;-80
2022/01/11 04:41:48;;;;;;;80.10;72.13;;;2.30;99.90;;;;;;5000075;28;20204;-80
2022/01/11 04:44:14;;;;;;;82.30;74.10;;;2.30;99.90;;;;;;4999782;28;20215;-78
2022/01/11 04:46:40;;;;;;;81.67;73.97;;;2.30;99.90;;;;;;4982126;28;20288;-80
2022/01/11 04:49:05;;;;;;;81.20;73.10;;;2.30;99.90;;;;;;5000642;28;20200;-80
2022/01/11 04:51:33;;;;;;;79.30;71.67;;;2.30;99.90;;;;;;5000902;28;20252;-80
2022/01/11 04:53:59;;;;;;;79.50;72.00;;;2.30;99.90;;;;;;4999188;28;20207;-79
2022/01/11 04:56:25;;;;;;;79.90;71.80;;;2.30;99.90;;;;;;5000010;28;20219;-82
2022/01/11 04:58:51;;;;;;;78.23;70.80;;;2.30;99.90;;;;;;5000555;28;20234;-79
2022/01/11 05:01:17;;;;;;;80.77;73.37;;;2.30;99.90;;;;;;4999455;28;20183;-80
2022/01/11 05:03:43;;;;;;;78.47;70.43;;;2.20;99.90;;;;;;5002991;28;20249;-80
2022/01/11 05:06:09;;;;;;;81.13;73.33;;;2.30;99.90;;;;;;4998982;28;20722;-80
2022/01/11 05:08:35;;;;;;;79.83;71.93;;;2.30;99.90;;;;;;4997484;28;20192;-78
2022/01/11 05:11:01;;;;;;;79.27;71.50;;;2.30;99.90;;;;;;4984268;28;20701;-80
2022/01/11 05:13:26;;;;;;;75.90;69.00;;;2.30;99.90;;;;;;4999906;28;20204;-80
2022/01/11 05:15:52;;;;;;;79.10;72.10;;;2.30;99.90;;;;;;4998667;28;20978;-80
2022/01/11 05:18:18;;;;;;;79.00;71.43;;;2.30;99.90;;;;;;5000368;28;20836;-80
2022/01/11 05:20:45;;;;;;;76.03;68.90;;;2.30;99.90;;;;;;4998256;28;20194;-79
2022/01/11 05:23:13;;;;;;;79.27;71.87;;;2.30;99.90;;;;;;5000785;28;20265;-80
2022/01/11 05:25:39;;;;;;;81.53;73.80;;;2.30;99.90;;;;;;4998736;28;20191;-80
2022/01/11 05:28:05;;;;;;;79.90;72.03;;;2.30;99.90;;;;;;4998682;28;20203;-80
2022/01/11 05:30:31;;;;;;;80.70;73.43;;;2.30;99.90;;;;;;4999445;28;20176;-81
2022/01/11 05:32:57;;;;;;;82.13;74.33;;;2.30;99.90;;;;;;4997614;28;20190;-80
2022/01/11 05:35:25;;;;;;;80.70;73.10;;;2.30;99.90;;;;;;4998808;28;20191;-78
2022/01/11 05:37:52;;;;;;;79.67;72.23;;;2.30;99.90;;;;;;4999082;28;20393;-79
2022/01/11 05:40:18;;;;;;;80.10;72.43;;;2.30;99.90;;;;;;4981033;28;20654;-78
2022/01/11 05:42:45;;;;;;;80.60;73.23;;;2.30;99.90;;;;;;4996019;28;20358;-80
2022/01/11 05:45:12;;;;;;;81.17;73.27;;;2.30;99.90;;;;;;4998390;28;20606;-81
2022/01/11 05:47:38;;;;;;;80.67;73.33;;;2.30;99.90;;;;;;5001176;28;20309;-80
2022/01/11 05:50:08;;;;;;;78.20;71.33;;;2.30;99.90;;;;;;5004367;28;20179;-80
2022/01/11 05:52:35;;;;;;;79.93;72.43;;;2.30;99.90;;;;;;5004034;28;20658;-79
2022/01/11 05:55:01;;;;;;;76.40;68.97;;;2.30;99.90;;;;;;5002742;28;20929;-80
2022/01/11 05:57:26;;;;;;;79.63;72.43;;;2.30;99.90;;;;;;5000886;28;20222;-80
2022/01/11 05:59:52;;;;;;;77.57;70.63;;;2.30;99.90;;;;;;4985821;28;20230;-79
2022/01/11 06:02:18;;;;;;;81.17;73.93;;;2.30;99.90;;;;;;4987556;28;20215;-80
2022/01/11 06:04:43;;;;;;;78.73;71.57;;;2.30;99.90;;;;;;5003698;28;20190;-80
2022/01/11 06:07:09;;;;;;;76.53;69.73;;;2.30;99.90;;;;;;4986657;28;20195;-78
2022/01/11 06:09:35;;;;;;;74.03;67.27;;;2.30;99.90;;;;;;5002805;28;20228;-79
2022/01/11 06:12:01;;;;;;;73.10;66.70;;;2.30;99.90;;;;;;5000659;28;20200;-80
2022/01/11 06:14:26;;;;;;;73.33;66.67;;;2.30;99.90;;;;;;5004057;28;20238;-81
2022/01/11 06:16:52;;;;;;;73.27;66.97;;;2.30;99.90;;;;;;5003794;28;20270;-80
2022/01/11 06:19:18;;;;;;;72.33;65.83;;;2.30;99.90;;;;;;5000626;28;20199;-80
2022/01/11 06:21:43;;;;;;;70.47;64.57;;;2.30;99.90;;;;;;4976752;28;20207;-80
2022/01/11 06:24:10;;;;;;;74.37;67.70;;;2.30;99.90;;;;;;4988817;28;20873;-78
2022/01/11 06:26:35;;;;;;;72.87;66.80;;;2.30;99.90;;;;;;5006145;28;20239;-80
2022/01/11 06:29:02;;;;;;;73.37;67.23;;;2.30;99.90;;;;;;5003627;28;20707;-80
2022/01/11 06:31:28;;;;;;;72.80;66.77;;;2.30;99.90;;;;;;5002296;28;20192;-80
2022/01/11 06:33:54;;;;;;;72.47;66.47;;;2.30;99.90;;;;;;5004442;28;20203;-81
2022/01/11 06:36:20;;;;;;;72.63;66.53;;;2.30;99.90;;;;;;4968903;28;20211;-79
2022/01/11 06:38:47;;;;;;;74.00;67.33;;;2.30;99.90;;;;;;5005924;28;20582;-80
2022/01/11 06:41:13;;;;;;;72.57;66.20;;;2.30;99.90;;;;;;5001786;28;20187;-79
2022/01/11 06:43:40;;;;;;;71.90;65.70;;;2.30;99.90;;;;;;5000148;28;20607;-78
2022/01/11 06:46:06;;;;;;;72.73;66.47;;;2.30;99.90;;;;;;5003888;28;20271;-81
2022/01/11 06:48:35;;;;;;;72.43;66.20;;;2.30;99.90;;;;;;5000968;28;20232;-80
2022/01/11 06:51:01;;;;;;;71.60;65.20;;;2.30;99.90;;;;;;5005265;28;20199;-81
2022/01/11 06:53:28;;;;;;;69.40;63.53;;;2.30;99.90;;;;;;5003458;28;20198;-78
2022/01/11 06:55:55;;;;;;;72.97;66.80;;;2.30;99.90;;;;;;4985499;28;20336;-82
2022/01/11 06:58:21;;;;;;;67.63;61.80;;;2.30;99.90;;;;;;5002498;28;20483;-79
2022/01/11 07:00:48;;;;;;;67.63;61.53;;;2.30;99.90;;;;;;5003169;28;20186;-78
2022/01/11 07:03:15;;;;;;;68.80;63.20;;;2.30;99.90;;;;;;4983789;28;20621;-81
2022/01/11 07:05:42;;;;;;;68.27;62.77;;;2.30;99.90;;;;;;5006074;28;20535;-79
2022/01/11 07:08:09;;;;;;;66.00;60.27;;;2.30;99.90;;;;;;5001472;28;20195;-80
2022/01/11 07:10:35;;;;;;;68.37;62.60;;;2.30;99.90;;;;;;5000779;28;20328;-80
2022/01/11 07:13:02;;;;;;;65.03;59.80;;;2.30;99.90;;;;;;4985333;28;20200;-79
2022/01/11 07:15:28;;;;;;;67.87;62.20;;;2.40;99.90;;;;;;5002552;28;20188;-79
2022/01/11 07:17:54;;;;;;;65.53;60.33;;;2.30;99.90;;;;;;5003365;28;20999;-80
2022/01/11 07:20:20;;;;;;;63.90;58.70;;;2.30;99.90;;;;;;4982122;28;20211;-81
2022/01/11 07:22:46;;;;;;;65.90;60.10;;;2.30;99.90;;;;;;5001818;28;20196;-79
2022/01/11 07:25:12;;;;;;;64.07;58.60;;;2.40;99.90;;;;;;5000674;28;20192;-81
2022/01/11 07:27:37;;;;;;;63.37;58.17;;;2.40;99.90;;;;;;5000795;28;20341;-80
2022/01/11 07:30:05;;;;;;;64.17;58.87;;;2.40;99.90;;;;;;4982961;28;20219;-80
2022/01/11 07:32:31;;;;;;;64.33;58.87;;;2.40;99.90;;;;;;4967584;28;20183;-80
2022/01/11 07:35:00;;;;;;;65.03;59.53;;;2.30;99.90;;;;;;4984593;28;20224;-80
2022/01/11 07:37:26;;;;;;;66.43;60.33;;;2.30;99.90;;;;;;5002847;28;20310;-79
2022/01/11 07:39:51;;;;;;;61.43;56.43;;;2.30;99.90;;;;;;5000667;28;20223;-79
2022/01/11 07:42:17;;;;;;;62.70;57.43;;;2.40;99.90;;;;;;5000416;28;20196;-80
2022/01/11 07:44:44;;;;;;;64.10;59.03;;;2.30;99.90;;;;;;5004318;28;20195;-80
2022/01/11 07:47:10;;;;;;;64.03;58.30;;;2.40;99.90;;;;;;4999836;28;20213;-81
2022/01/11 07:49:35;;;;;;;65.50;60.20;;;2.30;99.90;;;;;;5001043;28;20282;-81
2022/01/11 07:52:01;;;;;;;63.40;58.10;;;2.30;99.90;;;;;;5003558;28;20206;-81
2022/01/11 07:54:27;;;;;;;63.97;58.30;;;2.30;99.90;;;;;;4991736;28;20562;-81
2022/01/11 07:56:53;;;;;;;62.13;56.93;;;2.30;99.90;;;;;;4958238;28;20215;-80
2022/01/11 07:59:19;;;;;;;61.77;55.97;;;2.40;99.90;;;;;;4983713;28;20195;-80
2022/01/11 08:01:45;;;;;;;62.67;57.57;;;2.30;99.90;;;;;;4984638;28;20179;-80
2022/01/11 08:04:10;;;;;;;60.70;55.60;;;2.50;99.90;;;;;;5002456;28;20191;-80
2022/01/11 08:06:36;;;;;;;61.67;56.67;;;2.80;99.90;;;;;;5000190;28;20187;-80
2022/01/11 08:09:03;;;;;;;62.10;57.17;;;3.30;99.90;;;;;;5000980;28;20247;-80
2022/01/11 08:11:29;;;;;;;62.47;57.37;;;3.80;99.90;;;;;;5002246;28;20175;-80
2022/01/11 08:13:55;;;;;;;63.33;58.33;;;4.40;99.90;;;;;;5007165;28;20188;-79
2022/01/11 08:16:21;;;;;;;62.83;57.67;;;4.80;99.90;;;;;;4983064;28;20265;-79
2022/01/11 08:18:47;;;;;;;67.97;62.33;;;5.00;99.90;;;;;;5001922;28;20282;-80
2022/01/11 08:21:13;;;;;;;65.27;60.10;;;4.70;99.90;;;;;;4970444;28;20601;-80
2022/01/11 08:23:38;;;;;;;62.60;57.20;;;4.20;99.90;;;;;;5002405;28;20216;-81
2022/01/11 08:26:05;;;;;;;63.27;58.40;;;3.70;99.90;;;;;;5003489;28;20221;-81
2022/01/11 08:28:32;;;;;;;61.00;56.13;;;3.30;99.90;;;;;;4992232;28;20203;-82
2022/01/11 08:30:58;;;;;;;62.50;57.57;;;3.00;99.90;;;;;;5004477;28;20183;-80
2022/01/11 08:33:24;;;;;;;61.23;56.17;;;2.90;99.90;;;;;;5001578;28;20180;-80
2022/01/11 08:35:51;;;;;;;60.20;55.70;;;2.70;99.90;;;;;;5000643;28;20194;-82
2022/01/11 08:38:17;;;;;;;61.20;56.53;;;2.60;99.90;;;;;;4998678;28;20234;-81
2022/01/11 08:40:42;;;;;;;62.40;57.20;;;2.50;99.90;;;;;;5000821;28;20657;-81
2022/01/11 08:43:08;;;;;;;61.63;56.67;;;2.50;99.90;;;;;;4984480;28;20314;-78
2022/01/11 08:45:36;;;;;;;60.67;56.07;;;2.50;99.90;;;;;;4992864;28;20203;-79
2022/01/11 08:48:02;;;;;;;58.60;53.53;;;2.50;99.90;;;;;;4977037;28;20200;-81
2022/01/11 08:50:29;;;;;;;59.80;55.33;;;2.50;99.90;;;;;;5005164;28;20684;-81
2022/01/11 08:52:55;;;;;;;59.67;55.10;;;2.50;99.90;;;;;;5004274;28;20191;-82
2022/01/11 08:55:20;;;;;;;58.73;53.97;;;2.50;99.90;;;;;;5000266;28;20266;-81
2022/01/11 08:57:46;;;;;;;57.93;53.17;;;2.50;99.90;;;;;;5001383;28;20291;-80
2022/01/11 09:00:17;;;;;;;59.30;54.43;;;2.50;99.90;;;;;;4984673;28;20187;-81
2022/01/11 09:02:48;;;;;;;58.67;53.77;;;2.50;99.90;;;;;;4995958;28;20180;-81
2022/01/11 09:05:14;;;;;;;57.37;52.67;;;2.60;99.90;;;;;;5000516;28;20211;-81
2022/01/11 09:07:40;;;;;;;57.20;52.43;;;2.60;99.90;;;;;;4997898;28;20270;-82
2022/01/11 09:10:07;;;;;;;58.20;53.47;;;2.60;99.90;;;;;;4998568;28;20199;-82
2022/01/11 09:12:33;;;;;;;58.37;53.60;;;2.60;99.90;;;;;;4999066;28;20208;-81
2022/01/11 09:15:05;;;;;;;58.73;54.03;;;2.60;99.90;;;;;;4999102;28;20321;-80
2022/01/11 09:17:31;;;;;;;57.40;52.70;;;2.60;99.90;;;;;;4997534;28;20239;-81
2022/01/11 09:19:56;;;;;;;58.20;53.27;;;2.60;99.90;;;;;;4998153;28;20667;-81
2022/01/11 09:22:22;;;;;;;57.87;53.53;;;2.60;99.90;;;;;;4998744;28;20202;-79
2022/01/11 09:24:48;;;;;;;57.77;53.00;;;2.60;99.90;;;;;;5004210;28;20198;-81
2022/01/11 09:27:14;;;;;;;58.70;54.13;;;2.60;99.90;;;;;;4983587;28;20666;-81
2022/01/11 09:29:41;;;;;;;57.97;53.47;;;2.60;99.90;;;;;;5000569;28;20216;-81
2022/01/11 09:32:08;;;;;;;59.63;54.60;;;2.50;99.90;;;;;;4998807;28;20598;-81
2022/01/11 09:34:37;;;;;;;58.80;53.53;;;2.50;99.90;;;;;;4999473;28;20195;-82
2022/01/11 09:37:03;;;;;;;55.83;51.03;;;2.50;99.90;;;;;;5002777;28;20204;-81
2022/01/11 09:39:28;;;;;;;56.57;51.73;;;2.50;99.90;;;;;;4997936;28;20251;-80
2022/01/11 09:41:58;;;;;;;55.63;50.80;;;2.40;99.90;;;;;;5000896;28;20616;-80
2022/01/11 09:44:25;;;;;;;56.03;51.33;;;2.50;99.90;;;;;;4968197;28;20207;-79
2022/01/11 09:46:52;;;;;;;58.47;53.77;;;2.40;99.90;;;;;;5001197;28;20200;-80
2022/01/11 09:49:18;;;;;;;57.50;52.63;;;2.40;99.90;;;;;;5002171;28;20191;-81
2022/01/11 09:51:43;;;;;;;58.20;53.30;;;2.50;99.90;;;;;;5002996;28;20200;-80
2022/01/11 09:54:09;;;;;;;57.93;53.13;;;2.40;99.90;;;;;;4965525;28;20749;-81
2022/01/11 09:56:39;;;;;;;58.70;53.93;;;2.40;99.90;;;;;;5001574;28;20214;-79
2022/01/11 09:59:06;;;;;;;56.80;51.97;;;2.40;99.90;;;;;;4999980;28;20519;-81
2022/01/11 10:01:33;;;;;;;55.77;51.27;;;2.50;99.90;;;;;;4999611;28;20266;-81
2022/01/11 10:04:02;;;;;;;55.53;51.20;;;2.60;99.90;;;;;;4984061;28;20255;-80
2022/01/11 10:06:28;;;;;;;55.70;51.27;;;2.70;99.90;;;;;;4999517;28;20194;-82
2022/01/11 10:09:19;;;;;;;56.33;51.50;;;2.70;99.90;;;;;;4999928;28;20223;-80
2022/01/11 10:11:48;;;;;;;54.23;49.90;;;2.60;99.90;;;;;;4998758;28;20596;-81
2022/01/11 10:14:25;;;;;;;57.43;52.57;;;2.60;99.90;;;;;;4999825;28;20324;-81
2022/01/11 10:17:15;;;;;;;55.20;50.63;;;2.60;99.90;;;;;;4997961;28;20220;-81
2022/01/11 10:19:50;;;;;;;53.93;49.53;;;2.70;99.90;;;;;;4989075;28;20271;-81
2022/01/11 10:22:21;;;;;;;55.93;51.37;;;2.60;99.90;;;;;;4999855;28;20179;-79
2022/01/11 10:24:49;;;;;;;55.67;51.00;;;2.70;99.90;;;;;;4998398;28;20183;-79
2022/01/11 10:27:24;;;;;;;53.53;49.27;;;2.70;99.90;;;;;;4999469;28;20203;-80
2022/01/11 10:29:56;;;;;;;54.67;49.87;;;2.80;99.90;;;;;;5000253;28;20199;-79
2022/01/11 10:32:28;;;;;;;55.33;50.83;;;2.80;99.90;;;;;;5000589;28;20204;-81
2022/01/11 10:34:56;;;;;;;52.53;48.40;;;2.80;99.90;;;;;;5001358;28;20202;-81
2022/01/11 10:37:40;;;;;;;53.60;49.10;;;2.80;99.90;;;;;;5000422;28;20257;-80
2022/01/11 10:40:07;;;;;;;53.97;49.30;;;2.80;99.90;;;;;;4995191;28;20232;-81
2022/01/11 10:42:38;;;;;;;52.30;47.63;;;2.80;99.90;;;;;;4979004;28;20216;-80
2022/01/11 10:45:11;;;;;;;55.53;50.53;;;2.80;99.90;;;;;;4961632;28;20194;-81
2022/01/11 10:47:41;;;;;;;53.67;49.00;;;2.80;99.90;;;;;;4966608;28;20238;-81
2022/01/11 10:50:18;;;;;;;54.70;49.67;;;2.90;99.90;;;;;;4964459;28;20221;-81
2022/01/11 10:52:45;;;;;;;51.33;47.00;;;2.90;99.90;;;;;;4977793;28;20188;-81
2022/01/11 10:55:17;;;;;;;52.53;47.87;;;2.90;99.90;;;;;;4964803;28;20200;-81
2022/01/11 10:57:48;;;;;;;52.20;47.63;;;2.90;99.90;;;;;;4965678;28;20304;-80
2022/01/11 11:00:24;;;;;;;50.93;46.53;;;2.90;99.90;;;;;;4978731;28;20268;-82
2022/01/11 11:03:14;;;;;;;50.00;45.90;;;3.00;99.90;;;;;;4980763;28;20180;-81
2022/01/11 11:05:50;;;;;;;51.27;46.77;;;3.00;99.90;;;;;;4962942;28;20185;-81
2022/01/11 11:08:25;;;;;;;49.60;45.43;;;3.00;99.90;;;;;;4996198;28;20181;-79
2022/01/11 11:10:56;;;;;;;51.10;46.50;;;3.00;99.90;;;;;;4994289;28;20192;-81
2022/01/11 11:13:34;;;;;;;51.90;47.10;;;3.00;99.90;;;;;;4980712;28;20204;-80
2022/01/11 11:16:06;;;;;;;49.13;44.97;;;3.00;99.90;;;;;;4980110;28;20707;-81
2022/01/11 11:18:35;;;;;;;50.13;45.83;;;3.00;99.90;;;;;;4978902;28;20261;-81
2022/01/11 11:21:15;;;;;;;49.33;44.83;;;3.10;99.90;;;;;;4980626;28;20614;-80
2022/01/11 11:23:41;;;;;;;49.97;45.63;;;3.10;99.90;;;;;;4978492;28;20278;-81
2022/01/11 11:26:07;;;;;;;49.73;45.53;;;3.10;99.90;;;;;;4978967;28;20307;-81
2022/01/11 11:28:33;;;;;;;48.03;43.93;;;3.20;99.90;;;;;;4977362;28;20213;-79
2022/01/11 11:30:59;;;;;;;47.43;43.33;;;3.20;99.90;;;;;;4963453;28;20193;-81
2022/01/11 11:33:25;;;;;;;47.57;43.20;;;3.20;99.90;;;;;;4978549;28;20206;-81
2022/01/11 11:35:52;;;;;;;50.33;45.67;;;3.20;99.90;;;;;;4963332;28;20822;-81
2022/01/11 11:38:21;;;;;;;46.27;41.87;;;3.30;99.90;;;;;;4965521;28;20221;-79
2022/01/11 11:40:52;;;;;;;47.53;43.17;;;3.30;99.90;;;;;;4984428;28;20264;-81
2022/01/11 11:43:19;;;;;;;46.60;42.10;;;3.40;99.90;;;;;;4996830;28;20205;-81
2022/01/11 11:45:45;;;;;;;48.40;44.00;;;3.40;99.90;;;;;;4996302;28;20184;-81
2022/01/11 11:48:16;;;;;;;47.00;42.70;;;3.50;99.90;;;;;;4981738;28;20262;-80
2022/01/11 11:50:57;;;;;;;43.50;39.57;;;3.50;99.90;;;;;;4998085;28;20232;-82
2022/01/11 11:53:39;;;;;;;43.47;39.67;;;3.60;99.90;;;;;;4999495;28;20222;-80
2022/01/11 11:56:33;;;;;;;42.47;38.27;;;3.70;99.90;;;;;;4980612;28;20184;-80
2022/01/11 11:58:59;;;;;;;39.77;35.60;;;3.90;99.90;;;;;;4981741;28;20178;-81
2022/01/11 12:01:33;;;;;;;35.50;31.97;;;3.90;99.90;;;;;;4984802;28;20188;-80
2022/01/11 12:03:59;;;;;;;38.47;33.13;;;4.20;99.90;;;;;;4985167;28;20180;-80
2022/01/11 12:06:31;;;;;;;34.80;30.07;;;4.40;99.90;;;;;;4981094;28;20690;-80
2022/01/11 12:09:04;;;;;;;31.67;28.23;;;4.50;99.90;;;;;;4976318;28;20192;-81
2022/01/11 12:11:39;;;;;;;30.90;27.57;;;4.70;99.90;;;;;;4997106;28;20181;-80
2022/01/11 12:14:05;;;;;;;28.53;25.57;;;4.80;99.90;;;;;;4980724;28;20689;-80
2022/01/11 12:16:36;;;;;;;32.20;23.40;;;4.90;99.90;;;;;;4998380;28;20208;-80
2022/01/11 12:19:05;;;;;;;30.00;24.23;;;4.90;99.90;;;;;;4997044;28;20646;-81
2022/01/11 12:21:53;;;;;;;30.47;24.50;;;4.90;99.90;;;;;;4984662;28;20608;-81
2022/01/11 12:24:37;;;;;;;26.90;24.17;;;4.90;99.90;;;;;;4983571;28;20625;-81
2022/01/11 12:27:04;;;;;;;29.00;25.17;;;4.90;99.90;;;;;;4999185;28;20312;-80
2022/01/11 12:29:30;;;;;;;38.20;26.73;;;4.90;99.90;;;;;;4982279;28;20218;-80
2022/01/11 12:32:00;;;;;;;31.23;24.93;;;4.90;99.90;;;;;;4997744;28;20185;-80
2022/01/11 12:34:45;;;;;;;32.73;25.43;;;4.90;99.90;;;;;;4996570;28;20912;-80
2022/01/11 12:37:28;;;;;;;30.53;26.60;;;4.80;99.90;;;;;;4997185;28;20548;-79
2022/01/11 12:39:59;;;;;;;37.27;26.63;;;4.80;99.90;;;;;;4982125;28;20596;-81